Station Historical Data
Daily Summary for March 25, 2017 Units:  Both    English   Metric
« Previous Day
Next Day »
Daily Weekly Monthly Yearly Custom
  High: Low: Average:
Temperature: 43.8 °F /  6.6 °C 34.4 °F /  1.3 °C 37.5 °F /  3.1 °C
Dew Point: 38.7 °F /  3.7 °C 31.5 °F /  -0.3 °C 34.4 °F /  1.3 °C
Humidity: 91% 82% 88%
Wind Speed: 13.0mph /  20.9km/h - 5.8mph /  9.3km/h
Wind Gust: 18.0mph /  29km/h - -
Wind- - ENE
Pressure: 30.36 in /  1028 hPa 30.10 in /  1019.2 hPa -
Precipitation: 0.00 in /  0 mm    
Historical Graphs
 
 
Tabular Data for March 25, 2017
Time Temperature Dew Point Pressure Wind Wind Speed Wind Gust Humidity Rainfall Rate (Hourly)
00:04 43.8 °F /  6.6 °C 38.7 °F /  3.7 °C 30.10in /  1019.2hPa NE 6.0mph /  9.7km/h 12.0mph /  19.3km/h 82% 0.00in /  0mm
00:09 43.7 °F /  6.5 °C 38.6 °F /  3.7 °C 30.10in /  1019.2hPa NE 5.0mph /  8km/h 10.0mph /  16.1km/h 82% 0.00in /  0mm
00:14 43.6 °F /  6.4 °C 38.5 °F /  3.6 °C 30.10in /  1019.2hPa NE 6.0mph /  9.7km/h 12.0mph /  19.3km/h 82% 0.00in /  0mm
00:19 43.6 °F /  6.4 °C 38.5 °F /  3.6 °C 30.10in /  1019.2hPa ENE 9.0mph /  14.5km/h 11.0mph /  17.7km/h 82% 0.00in /  0mm
00:24 43.4 °F /  6.3 °C 38.3 °F /  3.5 °C 30.10in /  1019.2hPa NE 7.0mph /  11.3km/h 13.0mph /  20.9km/h 82% 0.00in /  0mm
00:29 43.4 °F /  6.3 °C 38.3 °F /  3.5 °C 30.11in /  1019.5hPa NNE 7.0mph /  11.3km/h 12.0mph /  19.3km/h 82% 0.00in /  0mm
00:34 43.3 °F /  6.3 °C 38.2 °F /  3.4 °C 30.10in /  1019.2hPa ENE 5.0mph /  8km/h 10.0mph /  16.1km/h 82% 0.00in /  0mm
00:39 43.2 °F /  6.2 °C 38.1 °F /  3.4 °C 30.10in /  1019.2hPa NE 7.0mph /  11.3km/h 11.0mph /  17.7km/h 82% 0.00in /  0mm
00:44 43.2 °F /  6.2 °C 38.1 °F /  3.4 °C 30.11in /  1019.5hPa NE 4.0mph /  6.4km/h 8.0mph /  12.9km/h 82% 0.00in /  0mm
00:49 43.2 °F /  6.2 °C 38.1 °F /  3.4 °C 30.11in /  1019.5hPa NE 5.0mph /  8km/h 8.0mph /  12.9km/h 82% 0.00in /  0mm
00:54 43.1 °F /  6.2 °C 38.0 °F /  3.3 °C 30.12in /  1019.9hPa East 1.0mph /  1.6km/h 7.0mph /  11.3km/h 82% 0.01in /  0.25mm
00:59 43.0 °F /  6.1 °C 38.2 °F /  3.4 °C 30.13in /  1020.2hPa ENE 3.0mph /  4.8km/h 7.0mph /  11.3km/h 83% 0.01in /  0.25mm
01:04 42.9 °F /  6.1 °C 38.4 °F /  3.6 °C 30.12in /  1019.9hPa ENE 3.0mph /  4.8km/h 9.0mph /  14.5km/h 84% 0.02in /  0.51mm
01:09 42.7 °F /  5.9 °C 38.2 °F /  3.4 °C 30.12in /  1019.9hPa ENE 4.0mph /  6.4km/h 9.0mph /  14.5km/h 84% 0.02in /  0.51mm
01:14 42.5 °F /  5.8 °C 38.0 °F /  3.3 °C 30.11in /  1019.5hPa NE 5.0mph /  8km/h 12.0mph /  19.3km/h 84% 0.02in /  0.51mm
01:19 42.4 °F /  5.8 °C 38.2 °F /  3.4 °C 30.10in /  1019.2hPa ENE 5.0mph /  8km/h 12.0mph /  19.3km/h 85% 0.02in /  0.51mm
01:24 42.3 °F /  5.7 °C 38.1 °F /  3.4 °C 30.11in /  1019.5hPa ENE 3.0mph /  4.8km/h 10.0mph /  16.1km/h 85% 0.03in /  0.76mm
01:29 42.2 °F /  5.7 °C 38.3 °F /  3.5 °C 30.12in /  1019.9hPa NE 2.0mph /  3.2km/h 6.0mph /  9.7km/h 86% 0.04in /  1.02mm
01:34 42.1 °F /  5.6 °C 38.2 °F /  3.4 °C 30.12in /  1019.9hPa NE 4.0mph /  6.4km/h 5.0mph /  8km/h 86% 0.05in /  1.27mm
01:39 42.0 °F /  5.6 °C 38.4 °F /  3.6 °C 30.11in /  1019.5hPa NE 5.0mph /  8km/h 7.0mph /  11.3km/h 87% 0.07in /  1.78mm
01:44 41.8 °F /  5.4 °C 38.2 °F /  3.4 °C 30.11in /  1019.5hPa NE 2.0mph /  3.2km/h 7.0mph /  11.3km/h 87% 0.08in /  2.03mm
01:49 41.8 °F /  5.4 °C 38.5 °F /  3.6 °C 30.13in /  1020.2hPa NNE 2.0mph /  3.2km/h 6.0mph /  9.7km/h 88% 0.08in /  2.03mm
01:54 41.7 °F /  5.4 °C 38.4 °F /  3.6 °C 30.12in /  1019.9hPa ENE 4.0mph /  6.4km/h 4.0mph /  6.4km/h 88% 0.07in /  1.78mm
01:59 41.6 °F /  5.3 °C 38.3 °F /  3.5 °C 30.12in /  1019.9hPa NE 5.0mph /  8km/h 7.0mph /  11.3km/h 88% 0.07in /  1.78mm
02:04 41.6 °F /  5.3 °C 38.3 °F /  3.5 °C 30.13in /  1020.2hPa NE 3.0mph /  4.8km/h 7.0mph /  11.3km/h 88% 0.10in /  2.54mm
02:09 41.6 °F /  5.3 °C 38.3 °F /  3.5 °C 30.12in /  1019.9hPa NE 3.0mph /  4.8km/h 5.0mph /  8km/h 88% 0.14in /  3.56mm
02:14 41.5 °F /  5.3 °C 38.5 °F /  3.6 °C 30.12in /  1019.9hPa NE 3.0mph /  4.8km/h 5.0mph /  8km/h 89% 0.16in /  4.06mm
02:19 41.4 °F /  5.2 °C 38.4 °F /  3.6 °C 30.12in /  1019.9hPa ENE 2.0mph /  3.2km/h 5.0mph /  8km/h 89% 0.17in /  4.32mm
02:24 41.4 °F /  5.2 °C 38.4 °F /  3.6 °C 30.13in /  1020.2hPa ENE 1.0mph /  1.6km/h 5.0mph /  8km/h 89% 0.16in /  4.06mm
02:29 41.4 °F /  5.2 °C 38.4 °F /  3.6 °C 30.12in /  1019.9hPa ESE 2.0mph /  3.2km/h 3.0mph /  4.8km/h 89% 0.17in /  4.32mm
02:34 41.3 °F /  5.2 °C 38.3 °F /  3.5 °C 30.12in /  1019.9hPa ENE 2.0mph /  3.2km/h 7.0mph /  11.3km/h 89% 0.19in /  4.83mm
02:39 41.4 °F /  5.2 °C 38.7 °F /  3.7 °C 30.13in /  1020.2hPa NE 2.0mph /  3.2km/h 4.0mph /  6.4km/h 90% 0.18in /  4.57mm
02:44 41.4 °F /  5.2 °C 38.7 °F /  3.7 °C 30.12in /  1019.9hPa NE 1.0mph /  1.6km/h 5.0mph /  8km/h 90% 0.18in /  4.57mm
02:49 41.3 °F /  5.2 °C 38.6 °F /  3.7 °C 30.13in /  1020.2hPa NE 2.0mph /  3.2km/h 4.0mph /  6.4km/h 90% 0.19in /  4.83mm
02:54 41.3 °F /  5.2 °C 38.6 °F /  3.7 °C 30.11in /  1019.5hPa East 6.0mph /  9.7km/h 6.0mph /  9.7km/h 90% 0.20in /  5.08mm
02:59 41.2 °F /  5.1 °C 38.5 °F /  3.6 °C 30.12in /  1019.9hPa NE 3.0mph /  4.8km/h 6.0mph /  9.7km/h 90% 0.20in /  5.08mm
03:04 41.2 °F /  5.1 °C 38.5 °F /  3.6 °C 30.12in /  1019.9hPa NE 2.0mph /  3.2km/h 6.0mph /  9.7km/h 90% 0.16in /  4.06mm
03:09 41.2 °F /  5.1 °C 38.5 °F /  3.6 °C 30.12in /  1019.9hPa NE 3.0mph /  4.8km/h 6.0mph /  9.7km/h 90% 0.12in /  3.05mm
03:14 41.1 °F /  5.1 °C 38.4 °F /  3.6 °C 30.12in /  1019.9hPa NE 4.0mph /  6.4km/h 7.0mph /  11.3km/h 90% 0.10in /  2.54mm
03:19 41.1 °F /  5.1 °C 38.7 °F /  3.7 °C 30.13in /  1020.2hPa NE 3.0mph /  4.8km/h 7.0mph /  11.3km/h 91% 0.09in /  2.29mm
03:24 41.1 °F /  5.1 °C 38.7 °F /  3.7 °C 30.13in /  1020.2hPa NE 3.0mph /  4.8km/h 5.0mph /  8km/h 91% 0.09in /  2.29mm
03:29 41.1 °F /  5.1 °C 38.7 °F /  3.7 °C 30.13in /  1020.2hPa NE 2.0mph /  3.2km/h 5.0mph /  8km/h 91% 0.07in /  1.78mm
03:34 40.9 °F /  4.9 °C 38.2 °F /  3.4 °C 30.12in /  1019.9hPa NE 3.0mph /  4.8km/h 6.0mph /  9.7km/h 90% 0.04in /  1.02mm
03:39 40.8 °F /  4.9 °C 38.4 °F /  3.6 °C 30.12in /  1019.9hPa NE 4.0mph /  6.4km/h 7.0mph /  11.3km/h 91% 0.03in /  0.76mm
03:44 40.7 °F /  4.8 °C 38.3 °F /  3.5 °C 30.12in /  1019.9hPa NE 4.0mph /  6.4km/h 10.0mph /  16.1km/h 91% 0.02in /  0.51mm
03:49 40.7 °F /  4.8 °C 38.3 °F /  3.5 °C 30.12in /  1019.9hPa NE 4.0mph /  6.4km/h 8.0mph /  12.9km/h 91% 0.01in /  0.25mm
03:54 40.7 °F /  4.8 °C 38.3 °F /  3.5 °C 30.12in /  1019.9hPa Calm   6.0mph /  9.7km/h 91% 0.00in /  0mm
03:59 40.7 °F /  4.8 °C 38.3 °F /  3.5 °C 30.13in /  1020.2hPa NNE 3.0mph /  4.8km/h 6.0mph /  9.7km/h 91% 0.00in /  0mm
04:09 40.6 °F /  4.8 °C 38.2 °F /  3.4 °C 30.12in /  1019.9hPa NNE 3.0mph /  4.8km/h 6.0mph /  9.7km/h 91% 0.00in /  0mm
04:14 40.5 °F /  4.7 °C 38.1 °F /  3.4 °C 30.12in /  1019.9hPa NE 3.0mph /  4.8km/h 7.0mph /  11.3km/h 91% 0.00in /  0mm
04:19 40.4 °F /  4.7 °C 38.0 °F /  3.3 °C 30.13in /  1020.2hPa NE 4.0mph /  6.4km/h 7.0mph /  11.3km/h 91% 0.01in /  0.25mm
04:24 40.3 °F /  4.6 °C 37.9 °F /  3.3 °C 30.13in /  1020.2hPa NE 4.0mph /  6.4km/h 9.0mph /  14.5km/h 91% 0.01in /  0.25mm
04:29 40.2 °F /  4.6 °C 37.8 °F /  3.2 °C 30.14in /  1020.5hPa NE 5.0mph /  8km/h 6.0mph /  9.7km/h 91% 0.01in /  0.25mm
04:39 40.0 °F /  4.4 °C 37.6 °F /  3.1 °C 30.13in /  1020.2hPa NE 5.0mph /  8km/h 11.0mph /  17.7km/h 91% 0.01in /  0.25mm
04:44 39.8 °F /  4.3 °C 37.4 °F /  3 °C 30.12in /  1019.9hPa ENE 9.0mph /  14.5km/h 9.0mph /  14.5km/h 91% 0.01in /  0.25mm
04:49 39.7 °F /  4.3 °C 37.3 °F /  2.9 °C 30.12in /  1019.9hPa NE 5.0mph /  8km/h 11.0mph /  17.7km/h 91% 0.01in /  0.25mm
04:54 39.5 °F /  4.2 °C 37.1 °F /  2.8 °C 30.14in /  1020.5hPa NNE 3.0mph /  4.8km/h 9.0mph /  14.5km/h 91% 0.02in /  0.51mm
04:59 39.4 °F /  4.1 °C 37.0 °F /  2.8 °C 30.13in /  1020.2hPa NNE 3.0mph /  4.8km/h 9.0mph /  14.5km/h 91% 0.02in /  0.51mm
05:04 39.3 °F /  4.1 °C 36.9 °F /  2.7 °C 30.13in /  1020.2hPa NE 4.0mph /  6.4km/h 9.0mph /  14.5km/h 91% 0.02in /  0.51mm
05:09 39.1 °F /  3.9 °C 36.7 °F /  2.6 °C 30.12in /  1019.9hPa NE 4.0mph /  6.4km/h 11.0mph /  17.7km/h 91% 0.02in /  0.51mm
05:14 39.0 °F /  3.9 °C 36.6 °F /  2.6 °C 30.13in /  1020.2hPa NE 5.0mph /  8km/h 11.0mph /  17.7km/h 91% 0.02in /  0.51mm
05:19 39.0 °F /  3.9 °C 36.6 °F /  2.6 °C 30.13in /  1020.2hPa NE 5.0mph /  8km/h 11.0mph /  17.7km/h 91% 0.01in /  0.25mm
05:24 38.9 °F /  3.8 °C 36.5 °F /  2.5 °C 30.12in /  1019.9hPa NE 5.0mph /  8km/h 11.0mph /  17.7km/h 91% 0.01in /  0.25mm
05:29 38.8 °F /  3.8 °C 36.4 °F /  2.4 °C 30.13in /  1020.2hPa NE 5.0mph /  8km/h 12.0mph /  19.3km/h 91% 0.01in /  0.25mm
05:34 38.8 °F /  3.8 °C 36.4 °F /  2.4 °C 30.14in /  1020.5hPa NE 5.0mph /  8km/h 12.0mph /  19.3km/h 91% 0.01in /  0.25mm
05:39 38.7 °F /  3.7 °C 36.3 °F /  2.4 °C 30.14in /  1020.5hPa NE 7.0mph /  11.3km/h 12.0mph /  19.3km/h 91% 0.01in /  0.25mm
05:44 38.6 °F /  3.7 °C 36.2 °F /  2.3 °C 30.14in /  1020.5hPa NNE 5.0mph /  8km/h 11.0mph /  17.7km/h 91% 0.01in /  0.25mm
05:49 38.6 °F /  3.7 °C 36.2 °F /  2.3 °C 30.15in /  1020.9hPa NE 3.0mph /  4.8km/h 10.0mph /  16.1km/h 91% 0.01in /  0.25mm
05:54 38.5 °F /  3.6 °C 36.1 °F /  2.3 °C 30.14in /  1020.5hPa NE 7.0mph /  11.3km/h 11.0mph /  17.7km/h 91% 0.00in /  0mm
05:59 38.3 °F /  3.5 °C 35.9 °F /  2.2 °C 30.15in /  1020.9hPa NE 13.0mph /  20.9km/h 14.0mph /  22.5km/h 91% 0.00in /  0mm
06:04 38.2 °F /  3.4 °C 35.8 °F /  2.1 °C 30.14in /  1020.5hPa NE 7.0mph /  11.3km/h 14.0mph /  22.5km/h 91% 0.00in /  0mm
06:09 38.0 °F /  3.3 °C 35.6 °F /  2 °C 30.14in /  1020.5hPa NE 7.0mph /  11.3km/h 16.0mph /  25.7km/h 91% 0.00in /  0mm
06:14 37.9 °F /  3.3 °C 35.5 °F /  1.9 °C 30.14in /  1020.5hPa NE 8.0mph /  12.9km/h 16.0mph /  25.7km/h 91% 0.00in /  0mm
06:19 37.8 °F /  3.2 °C 35.4 °F /  1.9 °C 30.14in /  1020.5hPa NE 7.0mph /  11.3km/h 14.0mph /  22.5km/h 91% 0.00in /  0mm
06:24 37.7 °F /  3.2 °C 35.3 °F /  1.8 °C 30.14in /  1020.5hPa NE 6.0mph /  9.7km/h 11.0mph /  17.7km/h 91% 0.00in /  0mm
06:29 37.7 °F /  3.2 °C 35.3 °F /  1.8 °C 30.15in /  1020.9hPa NE 6.0mph /  9.7km/h 14.0mph /  22.5km/h 91% 0.00in /  0mm
06:34 37.5 °F /  3.1 °C 35.1 °F /  1.7 °C 30.15in /  1020.9hPa NE 7.0mph /  11.3km/h 14.0mph /  22.5km/h 91% 0.00in /  0mm
06:44 37.4 °F /  3 °C 35.0 °F /  1.7 °C 30.14in /  1020.5hPa ENE 7.0mph /  11.3km/h 14.0mph /  22.5km/h 91% 0.00in /  0mm
06:49 37.4 °F /  3 °C 35.0 °F /  1.7 °C 30.14in /  1020.5hPa NE 9.0mph /  14.5km/h 12.0mph /  19.3km/h 91% 0.00in /  0mm
06:54 37.3 °F /  2.9 °C 34.9 °F /  1.6 °C 30.14in /  1020.5hPa NE 6.0mph /  9.7km/h 14.0mph /  22.5km/h 91% 0.00in /  0mm
06:59 37.2 °F /  2.9 °C 34.8 °F /  1.6 °C 30.15in /  1020.9hPa NE 4.0mph /  6.4km/h 11.0mph /  17.7km/h 91% 0.00in /  0mm
07:04 37.2 °F /  2.9 °C 34.8 °F /  1.6 °C 30.16in /  1021.2hPa NNE 8.0mph /  12.9km/h 12.0mph /  19.3km/h 91% 0.00in /  0mm
07:09 37.2 °F /  2.9 °C 34.8 °F /  1.6 °C 30.16in /  1021.2hPa NE 7.0mph /  11.3km/h 12.0mph /  19.3km/h 91% 0.00in /  0mm
07:14 37.2 °F /  2.9 °C 34.8 °F /  1.6 °C 30.17in /  1021.6hPa NE 6.0mph /  9.7km/h 12.0mph /  19.3km/h 91% 0.00in /  0mm
07:19 37.2 °F /  2.9 °C 34.8 °F /  1.6 °C 30.17in /  1021.6hPa NE 6.0mph /  9.7km/h 12.0mph /  19.3km/h 91% 0.00in /  0mm
07:24 37.1 °F /  2.8 °C 34.7 °F /  1.5 °C 30.17in /  1021.6hPa NE 6.0mph /  9.7km/h 12.0mph /  19.3km/h 91% 0.00in /  0mm
07:29 37.1 °F /  2.8 °C 34.7 °F /  1.5 °C 30.17in /  1021.6hPa NE 6.0mph /  9.7km/h 12.0mph /  19.3km/h 91% 0.00in /  0mm
07:34 37.1 °F /  2.8 °C 34.7 °F /  1.5 °C 30.17in /  1021.6hPa NE 5.0mph /  8km/h 12.0mph /  19.3km/h 91% 0.00in /  0mm
07:39 37.0 °F /  2.8 °C 34.6 °F /  1.4 °C 30.17in /  1021.6hPa NE 6.0mph /  9.7km/h 12.0mph /  19.3km/h 91% 0.00in /  0mm
07:49 37.0 °F /  2.8 °C 34.6 °F /  1.4 °C 30.16in /  1021.2hPa NE 4.0mph /  6.4km/h 11.0mph /  17.7km/h 91% 0.01in /  0.25mm
07:54 37.0 °F /  2.8 °C 34.6 °F /  1.4 °C 30.17in /  1021.6hPa NE 4.0mph /  6.4km/h 11.0mph /  17.7km/h 91% 0.01in /  0.25mm
07:59 37.0 °F /  2.8 °C 34.6 °F /  1.4 °C 30.18in /  1021.9hPa NE 3.0mph /  4.8km/h 10.0mph /  16.1km/h 91% 0.01in /  0.25mm
08:04 36.9 °F /  2.7 °C 34.5 °F /  1.4 °C 30.18in /  1021.9hPa NNE 5.0mph /  8km/h 11.0mph /  17.7km/h 91% 0.01in /  0.25mm
08:09 36.9 °F /  2.7 °C 34.5 °F /  1.4 °C 30.18in /  1021.9hPa NE 7.0mph /  11.3km/h 12.0mph /  19.3km/h 91% 0.01in /  0.25mm
08:19 36.7 °F /  2.6 °C 34.3 °F /  1.3 °C 30.19in /  1022.2hPa NE 7.0mph /  11.3km/h 14.0mph /  22.5km/h 91% 0.01in /  0.25mm
08:24 36.5 °F /  2.5 °C 34.1 °F /  1.2 °C 30.20in /  1022.6hPa NE 7.0mph /  11.3km/h 15.0mph /  24.1km/h 91% 0.01in /  0.25mm
08:29 36.4 °F /  2.4 °C 34.0 °F /  1.1 °C 30.21in /  1022.9hPa NE 7.0mph /  11.3km/h 15.0mph /  24.1km/h 91% 0.01in /  0.25mm
08:34 36.4 °F /  2.4 °C 34.0 °F /  1.1 °C 30.21in /  1022.9hPa NE 7.0mph /  11.3km/h 14.0mph /  22.5km/h 91% 0.01in /  0.25mm
08:39 36.3 °F /  2.4 °C 33.9 °F /  1.1 °C 30.21in /  1022.9hPa NE 6.0mph /  9.7km/h 13.0mph /  20.9km/h 91% 0.02in /  0.51mm
08:44 36.4 °F /  2.4 °C 34.0 °F /  1.1 °C 30.22in /  1023.2hPa NE 5.0mph /  8km/h 12.0mph /  19.3km/h 91% 0.03in /  0.76mm
08:49 36.2 °F /  2.3 °C 33.8 °F /  1 °C 30.21in /  1022.9hPa NNE 4.0mph /  6.4km/h 13.0mph /  20.9km/h 91% 0.03in /  0.76mm
09:04 35.9 °F /  2.2 °C 33.5 °F /  0.8 °C 30.22in /  1023.2hPa NE 4.0mph /  6.4km/h 18.0mph /  29km/h 91% 0.05in /  1.27mm
09:09 35.8 °F /  2.1 °C 33.4 °F /  0.8 °C 30.22in /  1023.2hPa East 7.0mph /  11.3km/h 15.0mph /  24.1km/h 91% 0.06in /  1.52mm
09:14 35.7 °F /  2.1 °C 33.3 °F /  0.7 °C 30.22in /  1023.2hPa ENE 5.0mph /  8km/h 13.0mph /  20.9km/h 91% 0.07in /  1.78mm
09:19 35.7 °F /  2.1 °C 33.3 °F /  0.7 °C 30.23in /  1023.6hPa NE 6.0mph /  9.7km/h 13.0mph /  20.9km/h 91% 0.07in /  1.78mm
09:24 35.6 °F /  2 °C 33.2 °F /  0.7 °C 30.23in /  1023.6hPa NE 7.0mph /  11.3km/h 17.0mph /  27.4km/h 91% 0.08in /  2.03mm
09:34 35.5 °F /  1.9 °C 33.1 °F /  0.6 °C 30.24in /  1023.9hPa NE 7.0mph /  11.3km/h 17.0mph /  27.4km/h 91% 0.10in /  2.54mm
09:39 35.5 °F /  1.9 °C 33.1 °F /  0.6 °C 30.24in /  1023.9hPa NE 7.0mph /  11.3km/h 13.0mph /  20.9km/h 91% 0.10in /  2.54mm
09:44 35.5 °F /  1.9 °C 33.1 °F /  0.6 °C 30.23in /  1023.6hPa NE 11.0mph /  17.7km/h 12.0mph /  19.3km/h 91% 0.11in /  2.79mm
09:49 35.5 °F /  1.9 °C 33.1 °F /  0.6 °C 30.24in /  1023.9hPa NE 6.0mph /  9.7km/h 13.0mph /  20.9km/h 91% 0.11in /  2.79mm
09:54 35.4 °F /  1.9 °C 33.0 °F /  0.6 °C 30.24in /  1023.9hPa NE 7.0mph /  11.3km/h 13.0mph /  20.9km/h 91% 0.12in /  3.05mm
09:59 35.4 °F /  1.9 °C 33.0 °F /  0.6 °C 30.24in /  1023.9hPa NE 7.0mph /  11.3km/h 12.0mph /  19.3km/h 91% 0.13in /  3.3mm
10:04 35.4 °F /  1.9 °C 33.0 °F /  0.6 °C 30.25in /  1024.3hPa NNE 5.0mph /  8km/h 11.0mph /  17.7km/h 91% 0.13in /  3.3mm
10:09 35.5 °F /  1.9 °C 33.1 °F /  0.6 °C 30.25in /  1024.3hPa NE 5.0mph /  8km/h 11.0mph /  17.7km/h 91% 0.13in /  3.3mm
10:14 35.5 °F /  1.9 °C 33.1 °F /  0.6 °C 30.26in /  1024.6hPa NE 6.0mph /  9.7km/h 13.0mph /  20.9km/h 91% 0.12in /  3.05mm
10:19 35.5 °F /  1.9 °C 33.1 °F /  0.6 °C 30.26in /  1024.6hPa ENE 7.0mph /  11.3km/h 10.0mph /  16.1km/h 91% 0.12in /  3.05mm
10:24 35.5 °F /  1.9 °C 33.1 °F /  0.6 °C 30.26in /  1024.6hPa ENE 7.0mph /  11.3km/h 13.0mph /  20.9km/h 91% 0.12in /  3.05mm
10:29 35.6 °F /  2 °C 33.2 °F /  0.7 °C 30.25in /  1024.3hPa NE 7.0mph /  11.3km/h 13.0mph /  20.9km/h 91% 0.11in /  2.79mm
10:34 35.5 °F /  1.9 °C 33.1 °F /  0.6 °C 30.26in /  1024.6hPa NE 5.0mph /  8km/h 16.0mph /  25.7km/h 91% 0.11in /  2.79mm
10:39 35.5 °F /  1.9 °C 33.1 °F /  0.6 °C 30.26in /  1024.6hPa NNE 6.0mph /  9.7km/h 13.0mph /  20.9km/h 91% 0.11in /  2.79mm
10:44 35.4 °F /  1.9 °C 33.0 °F /  0.6 °C 30.27in /  1024.9hPa East 7.0mph /  11.3km/h 14.0mph /  22.5km/h 91% 0.09in /  2.29mm
10:49 35.5 °F /  1.9 °C 33.1 °F /  0.6 °C 30.27in /  1024.9hPa NE 4.0mph /  6.4km/h 12.0mph /  19.3km/h 91% 0.09in /  2.29mm
10:54 35.5 °F /  1.9 °C 33.1 °F /  0.6 °C 30.27in /  1024.9hPa NE 6.0mph /  9.7km/h 13.0mph /  20.9km/h 91% 0.09in /  2.29mm
10:59 35.5 °F /  1.9 °C 33.1 °F /  0.6 °C 30.27in /  1024.9hPa NE 6.0mph /  9.7km/h 13.0mph /  20.9km/h 91% 0.08in /  2.03mm
11:04 35.5 °F /  1.9 °C 33.1 °F /  0.6 °C 30.28in /  1025.3hPa NE 8.0mph /  12.9km/h 14.0mph /  22.5km/h 91% 0.07in /  1.78mm
11:09 35.6 °F /  2 °C 33.2 °F /  0.7 °C 30.28in /  1025.3hPa NE 7.0mph /  11.3km/h 14.0mph /  22.5km/h 91% 0.06in /  1.52mm
11:14 35.5 °F /  1.9 °C 33.1 °F /  0.6 °C 30.30in /  1026hPa NE 7.0mph /  11.3km/h 17.0mph /  27.4km/h 91% 0.07in /  1.78mm
11:19 35.5 °F /  1.9 °C 32.9 °F /  0.5 °C 30.30in /  1026hPa NE 11.0mph /  17.7km/h 14.0mph /  22.5km/h 90% 0.07in /  1.78mm
11:24 35.4 °F /  1.9 °C 32.8 °F /  0.4 °C 30.30in /  1026hPa NE 7.0mph /  11.3km/h 14.0mph /  22.5km/h 90% 0.07in /  1.78mm
11:29 35.5 °F /  1.9 °C 32.9 °F /  0.5 °C 30.31in /  1026.3hPa ENE 3.0mph /  4.8km/h 13.0mph /  20.9km/h 90% 0.08in /  2.03mm
11:34 35.5 °F /  1.9 °C 32.9 °F /  0.5 °C 30.31in /  1026.3hPa NE 4.0mph /  6.4km/h 13.0mph /  20.9km/h 90% 0.07in /  1.78mm
11:39 35.5 °F /  1.9 °C 32.9 °F /  0.5 °C 30.31in /  1026.3hPa NE 12.0mph /  19.3km/h 14.0mph /  22.5km/h 90% 0.06in /  1.52mm
11:44 35.7 °F /  2.1 °C 33.1 °F /  0.6 °C 30.31in /  1026.3hPa NE 8.0mph /  12.9km/h 15.0mph /  24.1km/h 90% 0.07in /  1.78mm
11:49 35.7 °F /  2.1 °C 33.1 °F /  0.6 °C 30.30in /  1026hPa NE 6.0mph /  9.7km/h 12.0mph /  19.3km/h 90% 0.06in /  1.52mm
11:54 35.7 °F /  2.1 °C 33.1 °F /  0.6 °C 30.31in /  1026.3hPa NE 7.0mph /  11.3km/h 16.0mph /  25.7km/h 90% 0.05in /  1.27mm
11:59 35.7 °F /  2.1 °C 33.1 °F /  0.6 °C 30.31in /  1026.3hPa NE 7.0mph /  11.3km/h 16.0mph /  25.7km/h 90% 0.05in /  1.27mm
12:04 35.7 °F /  2.1 °C 33.1 °F /  0.6 °C 30.31in /  1026.3hPa NE 7.0mph /  11.3km/h 12.0mph /  19.3km/h 90% 0.05in /  1.27mm
12:09 35.7 °F /  2.1 °C 33.1 °F /  0.6 °C 30.31in /  1026.3hPa NE 7.0mph /  11.3km/h 14.0mph /  22.5km/h 90% 0.05in /  1.27mm
12:14 35.7 °F /  2.1 °C 33.1 °F /  0.6 °C 30.31in /  1026.3hPa NE 8.0mph /  12.9km/h 12.0mph /  19.3km/h 90% 0.04in /  1.02mm
12:19 35.7 °F /  2.1 °C 33.1 °F /  0.6 °C 30.31in /  1026.3hPa ENE 4.0mph /  6.4km/h 14.0mph /  22.5km/h 90% 0.05in /  1.27mm
12:24 35.7 °F /  2.1 °C 33.1 °F /  0.6 °C 30.31in /  1026.3hPa East 6.0mph /  9.7km/h 12.0mph /  19.3km/h 90% 0.04in /  1.02mm
12:29 35.7 °F /  2.1 °C 33.1 °F /  0.6 °C 30.31in /  1026.3hPa NE 6.0mph /  9.7km/h 12.0mph /  19.3km/h 90% 0.04in /  1.02mm
12:34 35.6 °F /  2 °C 33.0 °F /  0.6 °C 30.32in /  1026.6hPa ENE 6.0mph /  9.7km/h 11.0mph /  17.7km/h 90% 0.05in /  1.27mm
12:39 35.7 °F /  2.1 °C 33.1 °F /  0.6 °C 30.32in /  1026.6hPa ENE 6.0mph /  9.7km/h 11.0mph /  17.7km/h 90% 0.05in /  1.27mm
12:44 35.8 °F /  2.1 °C 33.2 °F /  0.7 °C 30.32in /  1026.6hPa ENE 5.0mph /  8km/h 11.0mph /  17.7km/h 90% 0.04in /  1.02mm
12:49 35.9 °F /  2.2 °C 33.3 °F /  0.7 °C 30.31in /  1026.3hPa ENE 5.0mph /  8km/h 11.0mph /  17.7km/h 90% 0.05in /  1.27mm
12:54 35.8 °F /  2.1 °C 33.2 °F /  0.7 °C 30.31in /  1026.3hPa ENE 5.0mph /  8km/h 13.0mph /  20.9km/h 90% 0.05in /  1.27mm
12:59 35.9 °F /  2.2 °C 33.0 °F /  0.6 °C 30.31in /  1026.3hPa East 3.0mph /  4.8km/h 13.0mph /  20.9km/h 89% 0.05in /  1.27mm
13:04 36.0 °F /  2.2 °C 33.4 °F /  0.8 °C 30.32in /  1026.6hPa ENE 5.0mph /  8km/h 13.0mph /  20.9km/h 90% 0.05in /  1.27mm
13:09 36.1 °F /  2.3 °C 33.5 °F /  0.8 °C 30.31in /  1026.3hPa East 5.0mph /  8km/h 11.0mph /  17.7km/h 90% 0.06in /  1.52mm
13:14 36.2 °F /  2.3 °C 33.5 °F /  0.8 °C 30.31in /  1026.3hPa ENE 11.0mph /  17.7km/h 11.0mph /  17.7km/h 90% 0.06in /  1.52mm
13:19 36.2 °F /  2.3 °C 33.3 °F /  0.7 °C 30.31in /  1026.3hPa East 7.0mph /  11.3km/h 15.0mph /  24.1km/h 89% 0.06in /  1.52mm
13:24 36.3 °F /  2.4 °C 33.4 °F /  0.8 °C 30.32in /  1026.6hPa NE 4.0mph /  6.4km/h 10.0mph /  16.1km/h 89% 0.06in /  1.52mm
13:29 36.3 °F /  2.4 °C 33.4 °F /  0.8 °C 30.32in /  1026.6hPa NE 5.0mph /  8km/h 9.0mph /  14.5km/h 89% 0.06in /  1.52mm
13:34 36.2 °F /  2.3 °C 33.3 °F /  0.7 °C 30.32in /  1026.6hPa ENE 5.0mph /  8km/h 12.0mph /  19.3km/h 89% 0.05in /  1.27mm
13:39 36.2 °F /  2.3 °C 33.3 °F /  0.7 °C 30.32in /  1026.6hPa NE 6.0mph /  9.7km/h 12.0mph /  19.3km/h 89% 0.06in /  1.52mm
13:44 36.2 °F /  2.3 °C 33.3 °F /  0.7 °C 30.32in /  1026.6hPa NE 6.0mph /  9.7km/h 12.0mph /  19.3km/h 89% 0.07in /  1.78mm
13:49 36.2 °F /  2.3 °C 33.3 °F /  0.7 °C 30.32in /  1026.6hPa NE 6.0mph /  9.7km/h 12.0mph /  19.3km/h 89% 0.07in /  1.78mm
13:54 36.2 °F /  2.3 °C 33.5 °F /  0.8 °C 30.32in /  1026.6hPa NE 6.0mph /  9.7km/h 12.0mph /  19.3km/h 90% 0.08in /  2.03mm
13:59 36.1 °F /  2.3 °C 33.5 °F /  0.8 °C 30.32in /  1026.6hPa NE 8.0mph /  12.9km/h 10.0mph /  16.1km/h 90% 0.08in /  2.03mm
14:04 36.2 °F /  2.3 °C 33.5 °F /  0.8 °C 30.32in /  1026.6hPa NE 6.0mph /  9.7km/h 11.0mph /  17.7km/h 90% 0.09in /  2.29mm
14:09 36.1 °F /  2.3 °C 33.5 °F /  0.8 °C 30.32in /  1026.6hPa NNE 6.0mph /  9.7km/h 14.0mph /  22.5km/h 90% 0.09in /  2.29mm
14:14 36.1 °F /  2.3 °C 33.5 °F /  0.8 °C 30.31in /  1026.3hPa East 10.0mph /  16.1km/h 14.0mph /  22.5km/h 90% 0.09in /  2.29mm
14:19 36.1 °F /  2.3 °C 33.5 °F /  0.8 °C 30.30in /  1026hPa NE 6.0mph /  9.7km/h 13.0mph /  20.9km/h 90% 0.08in /  2.03mm
14:24 36.5 °F /  2.5 °C 33.8 °F /  1 °C 30.29in /  1025.6hPa ENE 2.0mph /  3.2km/h 14.0mph /  22.5km/h 90% 0.08in /  2.03mm
14:29 36.9 °F /  2.7 °C 34.2 °F /  1.2 °C 30.32in /  1026.6hPa NNE 9.0mph /  14.5km/h 11.0mph /  17.7km/h 90% 0.07in /  1.78mm
14:34 36.9 °F /  2.7 °C 34.2 °F /  1.2 °C 30.30in /  1026hPa ESE 4.0mph /  6.4km/h 11.0mph /  17.7km/h 90% 0.07in /  1.78mm
14:39 37.2 °F /  2.9 °C 34.3 °F /  1.3 °C 30.32in /  1026.6hPa ENE 6.0mph /  9.7km/h 12.0mph /  19.3km/h 89% 0.06in /  1.52mm
14:44 37.0 °F /  2.8 °C 34.1 °F /  1.2 °C 30.30in /  1026hPa NE 6.0mph /  9.7km/h 14.0mph /  22.5km/h 89% 0.05in /  1.27mm
14:49 37.0 °F /  2.8 °C 34.1 °F /  1.2 °C 30.31in /  1026.3hPa ENE 7.0mph /  11.3km/h 14.0mph /  22.5km/h 89% 0.04in /  1.02mm
14:54 36.9 °F /  2.7 °C 33.7 °F /  0.9 °C 30.32in /  1026.6hPa ENE 7.0mph /  11.3km/h 16.0mph /  25.7km/h 88% 0.03in /  0.76mm
14:59 37.1 °F /  2.8 °C 34.2 °F /  1.2 °C 30.31in /  1026.3hPa ENE 6.0mph /  9.7km/h 16.0mph /  25.7km/h 89% 0.02in /  0.51mm
15:04 37.4 °F /  3 °C 34.2 °F /  1.2 °C 30.31in /  1026.3hPa ENE 5.0mph /  8km/h 11.0mph /  17.7km/h 88% 0.01in /  0.25mm
15:09 37.6 °F /  3.1 °C 34.4 °F /  1.3 °C 30.32in /  1026.6hPa NE 7.0mph /  11.3km/h 13.0mph /  20.9km/h 88% 0.00in /  0mm
15:14 37.4 °F /  3 °C 33.9 °F /  1.1 °C 30.32in /  1026.6hPa ENE 10.0mph /  16.1km/h 13.0mph /  20.9km/h 87% 0.00in /  0mm
15:19 37.3 °F /  2.9 °C 33.8 °F /  1 °C 30.33in /  1027hPa NE 11.0mph /  17.7km/h 14.0mph /  22.5km/h 87% 0.00in /  0mm
15:24 37.1 °F /  2.8 °C 33.6 °F /  0.9 °C 30.33in /  1027hPa ENE 4.0mph /  6.4km/h 16.0mph /  25.7km/h 87% 0.00in /  0mm
15:29 37.0 °F /  2.8 °C 33.5 °F /  0.8 °C 30.32in /  1026.6hPa East 7.0mph /  11.3km/h 11.0mph /  17.7km/h 87% 0.00in /  0mm
15:34 37.0 °F /  2.8 °C 33.5 °F /  0.8 °C 30.33in /  1027hPa ENE 4.0mph /  6.4km/h 13.0mph /  20.9km/h 87% 0.00in /  0mm
15:39 36.9 °F /  2.7 °C 33.1 °F /  0.6 °C 30.32in /  1026.6hPa ENE 7.0mph /  11.3km/h 15.0mph /  24.1km/h 86% 0.00in /  0mm
15:44 36.9 °F /  2.7 °C 33.1 °F /  0.6 °C 30.32in /  1026.6hPa ENE 8.0mph /  12.9km/h 16.0mph /  25.7km/h 86% 0.00in /  0mm
15:49 36.8 °F /  2.7 °C 33.3 °F /  0.7 °C 30.32in /  1026.6hPa NE 9.0mph /  14.5km/h 16.0mph /  25.7km/h 87% 0.00in /  0mm
15:54 36.7 °F /  2.6 °C 33.2 °F /  0.7 °C 30.32in /  1026.6hPa NE 8.0mph /  12.9km/h 15.0mph /  24.1km/h 87% 0.00in /  0mm
15:59 36.8 °F /  2.7 °C 33.3 °F /  0.7 °C 30.34in /  1027.3hPa NE 7.0mph /  11.3km/h 15.0mph /  24.1km/h 87% 0.00in /  0mm
16:04 36.9 °F /  2.7 °C 33.4 °F /  0.8 °C 30.33in /  1027hPa NE 7.0mph /  11.3km/h 14.0mph /  22.5km/h 87% 0.00in /  0mm
16:09 37.0 °F /  2.8 °C 33.5 °F /  0.8 °C 30.33in /  1027hPa ESE 7.0mph /  11.3km/h 10.0mph /  16.1km/h 87% 0.00in /  0mm
16:14 37.0 °F /  2.8 °C 33.5 °F /  0.8 °C 30.33in /  1027hPa ENE 9.0mph /  14.5km/h 13.0mph /  20.9km/h 87% 0.00in /  0mm
16:19 37.3 °F /  2.9 °C 33.8 °F /  1 °C 30.33in /  1027hPa ENE 7.0mph /  11.3km/h 12.0mph /  19.3km/h 87% 0.00in /  0mm
16:24 37.7 °F /  3.2 °C 34.2 °F /  1.2 °C 30.33in /  1027hPa ENE 5.0mph /  8km/h 14.0mph /  22.5km/h 87% 0.00in /  0mm
16:29 38.1 °F /  3.4 °C 34.6 °F /  1.4 °C 30.32in /  1026.6hPa East 10.0mph /  16.1km/h 15.0mph /  24.1km/h 87% 0.00in /  0mm
16:34 38.2 °F /  3.4 °C 34.4 °F /  1.3 °C 30.32in /  1026.6hPa NE 13.0mph /  20.9km/h 15.0mph /  24.1km/h 86% 0.00in /  0mm
16:39 38.2 °F /  3.4 °C 34.4 °F /  1.3 °C 30.33in /  1027hPa NE 8.0mph /  12.9km/h 16.0mph /  25.7km/h 86% 0.00in /  0mm
16:49 38.3 °F /  3.5 °C 33.9 °F /  1.1 °C 30.33in /  1027hPa NE 8.0mph /  12.9km/h 16.0mph /  25.7km/h 84% 0.00in /  0mm
16:54 38.2 °F /  3.4 °C 33.8 °F /  1 °C 30.33in /  1027hPa ENE 8.0mph /  12.9km/h 16.0mph /  25.7km/h 84% 0.00in /  0mm
16:59 38.2 °F /  3.4 °C 34.1 °F /  1.2 °C 30.33in /  1027hPa ENE 7.0mph /  11.3km/h 14.0mph /  22.5km/h 85% 0.00in /  0mm
17:04 38.1 °F /  3.4 °C 34.0 °F /  1.1 °C 30.32in /  1026.6hPa ENE 6.0mph /  9.7km/h 14.0mph /  22.5km/h 85% 0.00in /  0mm
17:09 38.1 °F /  3.4 °C 34.0 °F /  1.1 °C 30.33in /  1027hPa NE 3.0mph /  4.8km/h 13.0mph /  20.9km/h 85% 0.00in /  0mm
17:14 37.9 °F /  3.3 °C 33.8 °F /  1 °C 30.33in /  1027hPa NE 4.0mph /  6.4km/h 13.0mph /  20.9km/h 85% 0.00in /  0mm
17:19 37.7 °F /  3.2 °C 33.6 °F /  0.9 °C 30.33in /  1027hPa ENE 6.0mph /  9.7km/h 15.0mph /  24.1km/h 85% 0.00in /  0mm
17:24 37.6 °F /  3.1 °C 33.5 °F /  0.8 °C 30.33in /  1027hPa East 10.0mph /  16.1km/h 14.0mph /  22.5km/h 85% 0.00in /  0mm
17:29 37.6 °F /  3.1 °C 33.5 °F /  0.8 °C 30.33in /  1027hPa ESE 4.0mph /  6.4km/h 13.0mph /  20.9km/h 85% 0.00in /  0mm
17:34 37.5 °F /  3.1 °C 33.4 °F /  0.8 °C 30.33in /  1027hPa ENE 8.0mph /  12.9km/h 12.0mph /  19.3km/h 85% 0.00in /  0mm
17:39 37.5 °F /  3.1 °C 33.4 °F /  0.8 °C 30.32in /  1026.6hPa ENE 11.0mph /  17.7km/h 14.0mph /  22.5km/h 85% 0.00in /  0mm
17:44 37.4 °F /  3 °C 33.3 °F /  0.7 °C 30.33in /  1027hPa East 7.0mph /  11.3km/h 15.0mph /  24.1km/h 85% 0.00in /  0mm
17:49 37.4 °F /  3 °C 33.3 °F /  0.7 °C 30.33in /  1027hPa ENE 8.0mph /  12.9km/h 15.0mph /  24.1km/h 85% 0.00in /  0mm
17:54 37.3 °F /  2.9 °C 33.5 °F /  0.8 °C 30.33in /  1027hPa ENE 7.0mph /  11.3km/h 14.0mph /  22.5km/h 86% 0.00in /  0mm
18:04 37.1 °F /  2.8 °C 33.3 °F /  0.7 °C 30.33in /  1027hPa ENE 7.0mph /  11.3km/h 13.0mph /  20.9km/h 86% 0.00in /  0mm
18:09 37.0 °F /  2.8 °C 33.2 °F /  0.7 °C 30.33in /  1027hPa NE 7.0mph /  11.3km/h 14.0mph /  22.5km/h 86% 0.00in /  0mm
18:14 36.9 °F /  2.7 °C 33.1 °F /  0.6 °C 30.33in /  1027hPa East 7.0mph /  11.3km/h 13.0mph /  20.9km/h 86% 0.00in /  0mm
18:19 36.8 °F /  2.7 °C 33.0 °F /  0.6 °C 30.33in /  1027hPa ENE 6.0mph /  9.7km/h 13.0mph /  20.9km/h 86% 0.00in /  0mm
18:24 37.0 °F /  2.8 °C 33.2 °F /  0.7 °C 30.32in /  1026.6hPa ENE 5.0mph /  8km/h 11.0mph /  17.7km/h 86% 0.00in /  0mm
18:29 36.9 °F /  2.7 °C 33.4 °F /  0.8 °C 30.32in /  1026.6hPa ENE 11.0mph /  17.7km/h 13.0mph /  20.9km/h 87% 0.00in /  0mm
18:34 36.8 °F /  2.7 °C 33.0 °F /  0.6 °C 30.33in /  1027hPa NNE 6.0mph /  9.7km/h 11.0mph /  17.7km/h 86% 0.00in /  0mm
18:39 36.6 °F /  2.6 °C 32.8 °F /  0.4 °C 30.33in /  1027hPa NE 7.0mph /  11.3km/h 16.0mph /  25.7km/h 86% 0.00in /  0mm
18:44 36.6 °F /  2.6 °C 33.1 °F /  0.6 °C 30.34in /  1027.3hPa NE 3.0mph /  4.8km/h 13.0mph /  20.9km/h 87% 0.00in /  0mm
18:49 36.6 °F /  2.6 °C 33.1 °F /  0.6 °C 30.35in /  1027.7hPa ENE 5.0mph /  8km/h 13.0mph /  20.9km/h 87% 0.00in /  0mm
18:54 36.7 °F /  2.6 °C 33.2 °F /  0.7 °C 30.34in /  1027.3hPa ENE 4.0mph /  6.4km/h 13.0mph /  20.9km/h 87% 0.00in /  0mm
18:59 36.6 °F /  2.6 °C 33.1 °F /  0.6 °C 30.34in /  1027.3hPa ENE 5.0mph /  8km/h 13.0mph /  20.9km/h 87% 0.00in /  0mm
19:04 36.5 °F /  2.5 °C 32.7 °F /  0.4 °C 30.34in /  1027.3hPa East 6.0mph /  9.7km/h 10.0mph /  16.1km/h 86% 0.00in /  0mm
19:09 36.4 °F /  2.4 °C 32.6 °F /  0.3 °C 30.34in /  1027.3hPa ENE 10.0mph /  16.1km/h 16.0mph /  25.7km/h 86% 0.00in /  0mm
19:14 36.3 °F /  2.4 °C 32.5 °F /  0.3 °C 30.34in /  1027.3hPa ENE 7.0mph /  11.3km/h 13.0mph /  20.9km/h 86% 0.00in /  0mm
19:19 36.4 °F /  2.4 °C 32.6 °F /  0.3 °C 30.33in /  1027hPa ENE 6.0mph /  9.7km/h 13.0mph /  20.9km/h 86% 0.00in /  0mm
19:24 36.4 °F /  2.4 °C 32.6 °F /  0.3 °C 30.33in /  1027hPa ENE 6.0mph /  9.7km/h 14.0mph /  22.5km/h 86% 0.00in /  0mm
19:29 36.3 °F /  2.4 °C 32.5 °F /  0.3 °C 30.33in /  1027hPa ENE 6.0mph /  9.7km/h 14.0mph /  22.5km/h 86% 0.00in /  0mm
19:34 36.2 °F /  2.3 °C 32.4 °F /  0.2 °C 30.34in /  1027.3hPa ENE 6.0mph /  9.7km/h 14.0mph /  22.5km/h 86% 0.00in /  0mm
19:39 36.1 °F /  2.3 °C 32.3 °F /  0.2 °C 30.34in /  1027.3hPa East 5.0mph /  8km/h 14.0mph /  22.5km/h 86% 0.00in /  0mm
19:49 36.1 °F /  2.3 °C 32.3 °F /  0.2 °C 30.34in /  1027.3hPa ENE 8.0mph /  12.9km/h 13.0mph /  20.9km/h 86% 0.00in /  0mm
19:54 36.1 °F /  2.3 °C 32.3 °F /  0.2 °C 30.34in /  1027.3hPa ENE 6.0mph /  9.7km/h 13.0mph /  20.9km/h 86% 0.00in /  0mm
20:04 36.1 °F /  2.3 °C 32.3 °F /  0.2 °C 30.33in /  1027hPa East 11.0mph /  17.7km/h 14.0mph /  22.5km/h 86% 0.00in /  0mm
20:09 36.1 °F /  2.3 °C 32.3 °F /  0.2 °C 30.32in /  1026.6hPa ESE 5.0mph /  8km/h 15.0mph /  24.1km/h 86% 0.00in /  0mm
20:14 36.0 °F /  2.2 °C 32.2 °F /  0.1 °C 30.33in /  1027hPa ENE 4.0mph /  6.4km/h 15.0mph /  24.1km/h 86% 0.00in /  0mm
20:19 36.0 °F /  2.2 °C 32.2 °F /  0.1 °C 30.34in /  1027.3hPa NE 6.0mph /  9.7km/h 9.0mph /  14.5km/h 86% 0.00in /  0mm
20:24 35.9 °F /  2.2 °C 32.1 °F /  0.1 °C 30.34in /  1027.3hPa NNE 3.0mph /  4.8km/h 13.0mph /  20.9km/h 86% 0.00in /  0mm
20:29 35.9 °F /  2.2 °C 32.1 °F /  0.1 °C 30.34in /  1027.3hPa ENE 7.0mph /  11.3km/h 13.0mph /  20.9km/h 86% 0.00in /  0mm
20:34 35.9 °F /  2.2 °C 32.1 °F /  0.1 °C 30.34in /  1027.3hPa ENE 6.0mph /  9.7km/h 13.0mph /  20.9km/h 86% 0.00in /  0mm
20:39 35.9 °F /  2.2 °C 32.1 °F /  0.1 °C 30.35in /  1027.7hPa ENE 6.0mph /  9.7km/h 11.0mph /  17.7km/h 86% 0.00in /  0mm
20:44 35.9 °F /  2.2 °C 32.1 °F /  0.1 °C 30.35in /  1027.7hPa ENE 6.0mph /  9.7km/h 15.0mph /  24.1km/h 86% 0.00in /  0mm
20:49 35.8 °F /  2.1 °C 32.0 °F /  0 °C 30.35in /  1027.7hPa ENE 7.0mph /  11.3km/h 15.0mph /  24.1km/h 86% 0.00in /  0mm
20:54 35.9 °F /  2.2 °C 32.1 °F /  0.1 °C 30.35in /  1027.7hPa ENE 7.0mph /  11.3km/h 15.0mph /  24.1km/h 86% 0.00in /  0mm
20:59 35.9 °F /  2.2 °C 32.1 °F /  0.1 °C 30.35in /  1027.7hPa NE 6.0mph /  9.7km/h 14.0mph /  22.5km/h 86% 0.00in /  0mm
21:04 35.9 °F /  2.2 °C 32.1 °F /  0.1 °C 30.35in /  1027.7hPa NNE 4.0mph /  6.4km/h 13.0mph /  20.9km/h 86% 0.00in /  0mm
21:09 35.9 °F /  2.2 °C 32.1 °F /  0.1 °C 30.35in /  1027.7hPa East 3.0mph /  4.8km/h 14.0mph /  22.5km/h 86% 0.00in /  0mm
21:14 35.8 °F /  2.1 °C 32.0 °F /  0 °C 30.35in /  1027.7hPa NE 8.0mph /  12.9km/h 13.0mph /  20.9km/h 86% 0.00in /  0mm
21:19 35.9 °F /  2.2 °C 32.1 °F /  0.1 °C 30.36in /  1028hPa East 6.0mph /  9.7km/h 15.0mph /  24.1km/h 86% 0.00in /  0mm
21:24 35.8 °F /  2.1 °C 32.0 °F /  0 °C 30.36in /  1028hPa ENE 4.0mph /  6.4km/h 11.0mph /  17.7km/h 86% 0.00in /  0mm
21:29 35.7 °F /  2.1 °C 31.9 °F /  -0.1 °C 30.35in /  1027.7hPa SE 4.0mph /  6.4km/h 12.0mph /  19.3km/h 86% 0.00in /  0mm
21:34 35.6 °F /  2 °C 31.8 °F /  -0.1 °C 30.35in /  1027.7hPa ENE 6.0mph /  9.7km/h 12.0mph /  19.3km/h 86% 0.00in /  0mm
21:39 35.5 °F /  1.9 °C 31.7 °F /  -0.2 °C 30.35in /  1027.7hPa ENE 6.0mph /  9.7km/h 13.0mph /  20.9km/h 86% 0.00in /  0mm
21:44 35.4 °F /  1.9 °C 31.6 °F /  -0.2 °C 30.35in /  1027.7hPa ENE 8.0mph /  12.9km/h 15.0mph /  24.1km/h 86% 0.00in /  0mm
21:49 35.5 °F /  1.9 °C 31.7 °F /  -0.2 °C 30.35in /  1027.7hPa ENE 8.0mph /  12.9km/h 15.0mph /  24.1km/h 86% 0.00in /  0mm
21:54 35.4 °F /  1.9 °C 31.6 °F /  -0.2 °C 30.34in /  1027.3hPa ENE 8.0mph /  12.9km/h 16.0mph /  25.7km/h 86% 0.00in /  0mm
21:59 35.4 °F /  1.9 °C 31.6 °F /  -0.2 °C 30.34in /  1027.3hPa NE 7.0mph /  11.3km/h 15.0mph /  24.1km/h 86% 0.00in /  0mm
22:04 35.3 °F /  1.8 °C 31.5 °F /  -0.3 °C 30.35in /  1027.7hPa ENE 7.0mph /  11.3km/h 15.0mph /  24.1km/h 86% 0.00in /  0mm
22:09 35.3 °F /  1.8 °C 31.8 °F /  -0.1 °C 30.35in /  1027.7hPa NE 7.0mph /  11.3km/h 17.0mph /  27.4km/h 87% 0.00in /  0mm
22:14 35.2 °F /  1.8 °C 31.7 °F /  -0.2 °C 30.34in /  1027.3hPa NE 11.0mph /  17.7km/h 16.0mph /  25.7km/h 87% 0.00in /  0mm
22:19 35.3 °F /  1.8 °C 31.8 °F /  -0.1 °C 30.34in /  1027.3hPa East 5.0mph /  8km/h 15.0mph /  24.1km/h 87% 0.00in /  0mm
22:24 35.2 °F /  1.8 °C 31.7 °F /  -0.2 °C 30.34in /  1027.3hPa NE 4.0mph /  6.4km/h 16.0mph /  25.7km/h 87% 0.01in /  0.25mm
22:29 35.1 °F /  1.7 °C 31.6 °F /  -0.2 °C 30.35in /  1027.7hPa East 3.0mph /  4.8km/h 11.0mph /  17.7km/h 87% 0.01in /  0.25mm
22:34 35.1 °F /  1.7 °C 31.9 °F /  -0.1 °C 30.36in /  1028hPa ENE 7.0mph /  11.3km/h 17.0mph /  27.4km/h 88% 0.01in /  0.25mm
22:39 35.1 °F /  1.7 °C 31.9 °F /  -0.1 °C 30.36in /  1028hPa NE 6.0mph /  9.7km/h 17.0mph /  27.4km/h 88% 0.01in /  0.25mm
22:44 35.0 °F /  1.7 °C 31.8 °F /  -0.1 °C 30.36in /  1028hPa NE 13.0mph /  20.9km/h 13.0mph /  20.9km/h 88% 0.01in /  0.25mm
22:49 34.9 °F /  1.6 °C 31.7 °F /  -0.2 °C 30.35in /  1027.7hPa NE 6.0mph /  9.7km/h 12.0mph /  19.3km/h 88% 0.01in /  0.25mm
22:54 34.8 °F /  1.6 °C 31.6 °F /  -0.2 °C 30.35in /  1027.7hPa NE 7.0mph /  11.3km/h 14.0mph /  22.5km/h 88% 0.01in /  0.25mm
22:59 34.8 °F /  1.6 °C 31.9 °F /  -0.1 °C 30.35in /  1027.7hPa East 3.0mph /  4.8km/h 13.0mph /  20.9km/h 89% 0.01in /  0.25mm
23:04 34.7 °F /  1.5 °C 31.5 °F /  -0.3 °C 30.35in /  1027.7hPa ENE 6.0mph /  9.7km/h 14.0mph /  22.5km/h 88% 0.01in /  0.25mm
23:09 34.7 °F /  1.5 °C 31.8 °F /  -0.1 °C 30.34in /  1027.3hPa ENE 5.0mph /  8km/h 14.0mph /  22.5km/h 89% 0.01in /  0.25mm
23:14 34.7 °F /  1.5 °C 31.8 °F /  -0.1 °C 30.34in /  1027.3hPa ENE 5.0mph /  8km/h 14.0mph /  22.5km/h 89% 0.01in /  0.25mm
23:19 34.7 °F /  1.5 °C 31.8 °F /  -0.1 °C 30.34in /  1027.3hPa ENE 6.0mph /  9.7km/h 14.0mph /  22.5km/h 89% 0.01in /  0.25mm
23:24 34.6 °F /  1.4 °C 31.7 °F /  -0.2 °C 30.34in /  1027.3hPa ENE 6.0mph /  9.7km/h 15.0mph /  24.1km/h 89% 0.00in /  0mm
23:29 34.6 °F /  1.4 °C 31.7 °F /  -0.2 °C 30.34in /  1027.3hPa ENE 6.0mph /  9.7km/h 15.0mph /  24.1km/h 89% 0.00in /  0mm
23:34 34.6 °F /  1.4 °C 31.7 °F /  -0.2 °C 30.34in /  1027.3hPa NE 6.0mph /  9.7km/h 14.0mph /  22.5km/h 89% 0.01in /  0.25mm
23:39 34.5 °F /  1.4 °C 31.6 °F /  -0.2 °C 30.34in /  1027.3hPa ENE 6.0mph /  9.7km/h 14.0mph /  22.5km/h 89% 0.01in /  0.25mm
23:44 34.5 °F /  1.4 °C 31.6 °F /  -0.2 °C 30.34in /  1027.3hPa East 5.0mph /  8km/h 12.0mph /  19.3km/h 89% 0.01in /  0.25mm
23:49 34.6 °F /  1.4 °C 31.7 °F /  -0.2 °C 30.33in /  1027hPa East 3.0mph /  4.8km/h 11.0mph /  17.7km/h 89% 0.01in /  0.25mm
23:54 34.5 °F /  1.4 °C 31.6 °F /  -0.2 °C 30.33in /  1027hPa NE 8.0mph /  12.9km/h 13.0mph /  20.9km/h 89% 0.01in /  0.25mm
23:59 34.4 °F /  1.3 °C 31.5 °F /  -0.3 °C 30.33in /  1027hPa ENE 7.0mph /  11.3km/h 12.0mph /  19.3km/h 89% 0.01in /  0.25mm
Buffalo, New York, USA
Compliments of Weather Underground - 2.25 mb